Terminal Aerodrome Forecast
Issued by NWS

Home | Current Version | Previous Version | Graphics & Text | Print | Product List | Glossary On
Versions: 1 2 3 4 5 6 7 8 9 10 11 12 13 14 15
671
FTUS43 KLSX 230520
TAFSUS
TAF
KSUS 230520Z 2306/2406 10008KT P6SM BKN100
     FM231300 11007KT P6SM VCSH OVC040
     FM231700 13009KT P6SM OVC040
     FM232300 15009KT P6SM SCT200
     FM240200 17009KT P6SM SCT150 WS014/20045KT=

USA.gov is the U.S. government's official web portal to all federal, state and local government web resources and services.